createdAt,value
2023-02-14T00:00:39.145Z,12.20
2023-02-14T00:03:05.608Z,12.45
2023-02-14T00:05:32.110Z,12.52
2023-02-14T00:07:58.605Z,13.45
2023-02-14T00:10:25.222Z,14.77
2023-02-14T00:12:51.887Z,12.63
2023-02-14T00:15:24.864Z,13.50
2023-02-14T00:17:54.641Z,14.10
2023-02-14T00:20:24.272Z,14.90
2023-02-14T00:22:50.633Z,14.95
2023-02-14T00:25:18.237Z,14.48
2023-02-14T00:27:45.139Z,13.07
2023-02-14T00:30:13.186Z,12.85
2023-02-14T00:32:40.909Z,11.98
2023-02-14T00:35:08.880Z,13.65
2023-02-14T00:37:35.412Z,14.57
2023-02-14T00:40:02.095Z,13.20
2023-02-14T00:42:28.556Z,11.65
2023-02-14T00:44:55.017Z,13.57
2023-02-14T00:47:21.486Z,12.35
2023-02-14T00:49:48.161Z,12.88
2023-02-14T00:52:14.552Z,12.85
2023-02-14T00:54:40.949Z,13.95
2023-02-14T00:57:07.398Z,13.73
2023-02-14T00:59:33.821Z,14.55
2023-02-14T01:02:00.456Z,13.82
2023-02-14T01:04:27.070Z,13.40
2023-02-14T01:06:53.670Z,14.00
2023-02-14T01:09:20.171Z,14.05
2023-02-14T01:11:46.982Z,12.88
2023-02-14T01:14:13.496Z,13.27
2023-02-14T01:16:40.072Z,12.07
2023-02-14T01:19:06.651Z,13.50
2023-02-14T01:21:34.262Z,12.85
2023-02-14T01:24:04.223Z,12.82
2023-02-14T01:26:31.237Z,14.68
2023-02-14T01:28:57.884Z,15.90
2023-02-14T01:31:27.994Z,13.73
2023-02-14T01:33:54.571Z,14.02
2023-02-14T01:36:22.882Z,13.10
2023-02-14T01:38:52.502Z,14.57
2023-02-14T01:41:19.067Z,14.85
2023-02-14T01:44:04.062Z,13.95
2023-02-14T01:46:37.177Z,13.38
2023-02-14T01:49:09.128Z,13.57
2023-02-14T01:51:40.603Z,13.52
2023-02-14T01:54:08.493Z,13.52
2023-02-14T01:56:40.960Z,14.43
2023-02-14T01:59:12.652Z,13.23
2023-02-14T02:01:41.734Z,13.35
2023-02-14T02:04:19.189Z,12.18
2023-02-14T02:06:52.367Z,10.98
2023-02-14T02:09:25.298Z,13.27
2023-02-14T02:11:52.133Z,14.15
2023-02-14T02:14:21.187Z,12.10
2023-02-14T02:17:25.162Z,11.70
2023-02-14T02:20:00.133Z,12.52
2023-02-14T02:22:56.519Z,12.05
2023-02-14T02:25:29.045Z,11.38
2023-02-14T02:28:25.891Z,11.40
2023-02-14T02:31:29.659Z,11.75
2023-02-14T02:34:13.649Z,10.43
2023-02-14T02:36:49.238Z,11.38
2023-02-14T02:39:29.199Z,12.73
2023-02-14T02:42:30.765Z,12.90
2023-02-14T02:45:18.486Z,12.25
2023-02-14T02:47:51.396Z,11.07
2023-02-14T02:50:45.991Z,11.27
2023-02-14T02:53:21.043Z,13.13
2023-02-14T02:56:16.813Z,11.20
2023-02-14T02:58:50.260Z,11.27
2023-02-14T03:01:21.887Z,11.82
2023-02-14T03:04:11.934Z,12.30
2023-02-14T03:06:38.528Z,11.52
2023-02-14T03:09:20.544Z,12.15
2023-02-14T03:14:34.343Z,9.20
2023-02-14T03:17:25.016Z,10.05
2023-02-14T03:20:15.135Z,11.90
2023-02-14T03:23:16.991Z,10.68
2023-02-14T03:25:46.392Z,12.80
2023-02-14T03:28:28.283Z,11.00
2023-02-14T03:31:04.568Z,12.07
2023-02-14T03:33:46.614Z,10.88
2023-02-14T03:36:22.370Z,10.45
2023-02-14T03:39:13.788Z,11.48
2023-02-14T03:44:20.332Z,10.90
2023-02-14T03:46:53.166Z,10.98
2023-02-14T03:49:24.565Z,10.55
2023-02-14T03:51:55.091Z,10.15
2023-02-14T03:54:24.284Z,10.52
2023-02-14T03:57:04.454Z,11.40
2023-02-14T03:59:31.373Z,11.70
2023-02-14T04:02:09.784Z,11.30
2023-02-14T04:04:42.311Z,11.75
2023-02-14T04:07:14.425Z,12.00
2023-02-14T04:09:40.981Z,12.02
2023-02-14T04:12:07.923Z,13.30
2023-02-14T04:14:34.577Z,11.98
2023-02-14T04:17:20.198Z,11.73
2023-02-14T04:19:46.644Z,10.82
2023-02-14T04:22:13.304Z,12.38
2023-02-14T04:24:40.149Z,12.38
2023-02-14T04:27:10.275Z,12.68
2023-02-14T04:29:40.157Z,13.85
2023-02-14T04:32:09.746Z,12.70
2023-02-14T04:34:36.813Z,11.20
2023-02-14T04:37:04.309Z,13.07
2023-02-14T04:39:30.738Z,13.57
2023-02-14T04:41:57.462Z,15.20
2023-02-14T04:44:24.033Z,12.27
2023-02-14T04:46:50.638Z,11.70
2023-02-14T04:49:17.231Z,11.00
2023-02-14T04:51:43.702Z,10.07
2023-02-14T04:54:10.285Z,13.75
2023-02-14T04:56:36.972Z,15.00
2023-02-14T04:59:04.321Z,14.45
2023-02-14T05:01:30.812Z,13.77
2023-02-14T05:03:57.343Z,11.65
2023-02-14T05:06:23.878Z,12.80
2023-02-14T05:08:50.358Z,11.73
2023-02-14T05:11:16.871Z,10.68
2023-02-14T05:13:43.240Z,10.15
2023-02-14T05:16:09.740Z,10.43
2023-02-14T05:18:36.469Z,13.57
2023-02-14T05:21:02.901Z,16.05
2023-02-14T05:23:29.390Z,19.48
2023-02-14T05:25:55.796Z,19.40
2023-02-14T05:28:22.261Z,20.50
2023-02-14T05:30:50.555Z,16.10
2023-02-14T05:33:17.145Z,15.90
2023-02-14T05:35:44.594Z,15.77
2023-02-14T05:38:13.082Z,17.95
2023-02-14T05:40:40.440Z,15.27
2023-02-14T05:43:07.013Z,13.80
2023-02-14T05:45:33.639Z,12.88
2023-02-14T05:48:00.776Z,12.05
2023-02-14T05:50:27.489Z,14.05
2023-02-14T05:52:54.530Z,12.57
2023-02-14T05:55:21.170Z,13.07
2023-02-14T05:57:47.560Z,11.38
2023-02-14T06:00:14.932Z,11.07
2023-02-14T06:02:41.779Z,13.43
2023-02-14T06:05:08.706Z,12.77
2023-02-14T06:07:35.089Z,16.60
2023-02-14T06:10:01.614Z,14.77
2023-02-14T06:12:28.150Z,13.63
2023-02-14T06:14:54.605Z,14.07
2023-02-14T06:17:20.988Z,13.00
2023-02-14T06:19:47.370Z,14.68
2023-02-14T06:22:13.858Z,14.57
2023-02-14T06:24:40.226Z,13.38
2023-02-14T06:27:06.733Z,13.43
2023-02-14T06:29:33.122Z,13.65
2023-02-14T06:32:05.742Z,16.00
2023-02-14T06:34:35.090Z,15.93
2023-02-14T06:37:01.522Z,14.77
2023-02-14T06:39:28.029Z,14.02
2023-02-14T06:41:54.409Z,15.70
2023-02-14T06:44:20.994Z,15.80
2023-02-14T06:46:47.383Z,16.77
2023-02-14T06:49:14.105Z,15.75
2023-02-14T06:51:40.475Z,16.10
2023-02-14T06:54:07.176Z,14.00
2023-02-14T06:56:33.546Z,13.13
2023-02-14T06:58:59.970Z,13.35
2023-02-14T07:01:26.402Z,14.60
2023-02-14T07:03:52.886Z,15.38
2023-02-14T07:06:19.423Z,17.38
2023-02-14T07:08:45.935Z,17.27
2023-02-14T07:11:12.374Z,16.23
2023-02-14T07:13:38.745Z,15.60
2023-02-14T07:16:06.033Z,16.63
2023-02-14T07:18:32.503Z,15.73
2023-02-14T07:20:59.225Z,14.45
2023-02-14T07:23:25.839Z,14.10
2023-02-14T07:25:52.321Z,14.20
2023-02-14T07:28:18.794Z,19.52
2023-02-14T07:30:45.274Z,18.58
2023-02-14T07:33:12.263Z,17.50
2023-02-14T07:35:38.877Z,18.75
2023-02-14T07:38:05.362Z,22.83
2023-02-14T07:40:31.920Z,21.98
2023-02-14T07:42:59.273Z,19.92
2023-02-14T07:45:26.269Z,20.17
2023-02-14T07:47:54.829Z,18.45
2023-02-14T07:50:22.904Z,15.52
2023-02-14T07:52:49.468Z,14.98
2023-02-14T07:55:16.435Z,15.35
2023-02-14T07:57:42.864Z,14.90
2023-02-14T08:00:09.832Z,14.45
2023-02-14T08:02:36.382Z,14.02
2023-02-14T08:05:02.976Z,12.35
2023-02-14T08:07:29.411Z,12.10
2023-02-14T08:09:55.831Z,11.60
2023-02-14T08:12:40.613Z,12.38
2023-02-14T08:15:26.327Z,11.43
2023-02-14T08:17:52.756Z,11.27
2023-02-14T08:20:19.173Z,12.18
2023-02-14T08:22:45.605Z,12.82
2023-02-14T08:25:12.035Z,13.13
2023-02-14T08:27:38.598Z,13.27
2023-02-14T08:30:05.573Z,15.57
2023-02-14T08:32:32.214Z,14.50
2023-02-14T08:34:58.726Z,13.77
2023-02-14T08:37:25.211Z,13.13
2023-02-14T08:39:51.727Z,12.48
2023-02-14T08:42:18.171Z,11.45
2023-02-14T08:44:44.645Z,12.85
2023-02-14T08:47:11.167Z,11.82
2023-02-14T08:49:37.654Z,11.35
2023-02-14T08:52:04.217Z,10.18
2023-02-14T08:54:30.667Z,11.68
2023-02-14T08:56:57.346Z,10.00
2023-02-14T08:59:24.054Z,9.38
2023-02-14T09:01:50.464Z,9.43
2023-02-14T09:04:17.358Z,10.20
2023-02-14T09:06:44.119Z,10.13
2023-02-14T09:09:10.643Z,11.32
2023-02-14T09:11:37.030Z,10.77
2023-02-14T09:14:05.829Z,10.52
2023-02-14T09:16:32.365Z,10.57
2023-02-14T09:18:58.768Z,12.02
2023-02-14T09:21:27.845Z,9.75
2023-02-14T09:23:54.779Z,11.00
2023-02-14T09:26:21.249Z,9.55
2023-02-14T09:28:47.744Z,9.65
2023-02-14T09:31:17.393Z,8.82
2023-02-14T09:33:45.662Z,9.65
2023-02-14T09:36:20.931Z,9.20
2023-02-14T09:38:47.544Z,11.25
2023-02-14T09:41:55.720Z,10.23
2023-02-14T09:44:27.165Z,9.73
2023-02-14T09:46:56.943Z,9.85
2023-02-14T09:49:34.414Z,10.23
2023-02-14T09:52:02.946Z,11.10
2023-02-14T09:54:33.034Z,10.40
2023-02-14T09:57:24.023Z,10.80
2023-02-14T09:59:57.338Z,9.38
2023-02-14T10:02:45.503Z,10.25
2023-02-14T10:05:21.963Z,10.68
2023-02-14T10:08:10.071Z,9.93
2023-02-14T10:10:43.081Z,10.45
2023-02-14T10:13:38.699Z,9.93
2023-02-14T10:16:27.150Z,9.75
2023-02-14T10:19:07.619Z,10.18
2023-02-14T10:21:48.522Z,10.07
2023-02-14T10:24:41.409Z,9.60
2023-02-14T10:27:33.078Z,10.45
2023-02-14T10:30:00.264Z,10.23
2023-02-14T10:32:45.045Z,10.43
2023-02-14T10:35:53.866Z,10.02
2023-02-14T10:38:35.191Z,10.98
2023-02-14T10:41:39.104Z,10.02
2023-02-14T10:44:39.963Z,10.45
2023-02-14T10:47:57.089Z,10.15
2023-02-14T10:50:36.461Z,9.68
2023-02-14T10:53:31.605Z,10.88
2023-02-14T10:56:04.030Z,10.07
2023-02-14T10:58:34.820Z,9.15
2023-02-14T11:01:12.150Z,9.00
2023-02-14T11:03:44.094Z,9.20
2023-02-14T11:06:11.369Z,9.38
2023-02-14T11:08:40.499Z,9.25
2023-02-14T11:11:27.159Z,8.45
2023-02-14T11:13:53.738Z,8.65
2023-02-14T11:16:32.683Z,8.30
2023-02-14T11:19:14.329Z,9.73
2023-02-14T11:21:43.408Z,8.60
2023-02-14T11:24:32.905Z,8.98
2023-02-14T11:27:03.050Z,10.07
2023-02-14T11:29:43.416Z,8.88
2023-02-14T11:32:12.238Z,8.40
2023-02-14T11:34:46.079Z,8.93
2023-02-14T11:37:21.691Z,9.57
2023-02-14T11:39:48.783Z,9.13
2023-02-14T11:42:33.698Z,8.30
2023-02-14T11:45:00.079Z,8.13
2023-02-14T11:47:29.523Z,8.52
2023-02-14T11:50:01.318Z,7.97
2023-02-14T11:52:29.805Z,7.78
2023-02-14T11:54:58.284Z,8.13
2023-02-14T11:57:38.167Z,7.93
2023-02-14T12:00:16.816Z,7.30
2023-02-14T12:02:51.797Z,8.20
2023-02-14T12:05:28.106Z,8.38
2023-02-14T12:07:56.889Z,7.82
2023-02-14T12:10:26.409Z,8.00
2023-02-14T12:13:26.031Z,8.73
2023-02-14T12:15:54.642Z,7.53
2023-02-14T12:19:09.672Z,8.30
2023-02-14T12:21:48.903Z,7.63
2023-02-14T12:24:29.731Z,7.13
2023-02-14T12:27:14.569Z,7.38
2023-02-14T12:29:58.797Z,7.95
2023-02-14T12:32:31.481Z,8.07
2023-02-14T12:35:07.194Z,8.80
2023-02-14T12:37:50.854Z,7.22
2023-02-14T12:40:28.290Z,7.18
2023-02-14T12:43:12.314Z,7.65
2023-02-14T12:46:02.487Z,6.45
2023-02-14T12:48:56.493Z,7.45
2023-02-14T12:51:43.630Z,6.75
2023-02-14T12:54:47.122Z,6.68
2023-02-14T12:57:40.133Z,8.48
2023-02-14T13:00:48.579Z,7.35
2023-02-14T13:03:34.708Z,7.43
2023-02-14T13:06:27.933Z,7.13
2023-02-14T13:09:13.178Z,7.38
2023-02-14T13:11:55.372Z,6.82
2023-02-14T13:14:48.478Z,6.22
2023-02-14T13:17:36.777Z,6.38
2023-02-14T13:20:39.372Z,6.90
2023-02-14T13:23:14.604Z,7.05
2023-02-14T13:25:49.775Z,7.18
2023-02-14T13:28:17.329Z,7.60
2023-02-14T13:33:38.037Z,7.65
2023-02-14T13:36:10.782Z,7.88
2023-02-14T13:38:45.059Z,7.32
2023-02-14T13:43:50.890Z,6.80
2023-02-14T13:46:46.627Z,7.28
2023-02-14T13:49:36.239Z,7.32
2023-02-14T13:52:04.891Z,6.82
2023-02-14T13:54:34.772Z,6.95
2023-02-14T13:57:22.473Z,7.03
2023-02-14T14:02:44.799Z,6.97
2023-02-14T14:05:29.718Z,7.40
2023-02-14T14:08:18.127Z,7.93
2023-02-14T14:10:50.242Z,8.05
2023-02-14T14:13:41.579Z,7.47
2023-02-14T14:16:29.302Z,7.70
2023-02-14T14:21:31.737Z,7.47
2023-02-14T14:24:22.537Z,8.00
2023-02-14T14:27:00.550Z,8.07
2023-02-14T14:29:43.624Z,8.73
2023-02-14T14:32:10.026Z,8.82
2023-02-14T14:34:36.961Z,8.77
2023-02-14T14:37:15.373Z,8.45
2023-02-14T14:39:41.999Z,9.27
2023-02-14T14:42:14.778Z,8.77
2023-02-14T14:45:00.649Z,11.15
2023-02-14T14:47:48.326Z,10.02
2023-02-14T14:50:24.525Z,8.45
2023-02-14T14:53:33.877Z,8.55
2023-02-14T14:56:00.735Z,8.75
2023-02-14T14:58:40.164Z,9.77
2023-02-14T15:01:13.001Z,9.23
2023-02-14T15:03:39.742Z,9.32
2023-02-14T15:06:19.035Z,9.85
2023-02-14T15:08:45.477Z,8.85
2023-02-14T15:11:43.692Z,8.85
2023-02-14T15:14:15.493Z,9.68
2023-02-14T15:16:47.109Z,9.80
2023-02-14T15:19:22.874Z,10.13
2023-02-14T15:21:50.081Z,9.80
2023-02-14T15:24:18.515Z,9.23
2023-02-14T15:26:47.369Z,8.93
2023-02-14T15:29:23.086Z,9.13
2023-02-14T15:31:50.559Z,9.75
2023-02-14T15:34:22.227Z,9.63
2023-02-14T15:36:52.308Z,9.60
2023-02-14T15:39:21.270Z,9.10
2023-02-14T15:41:47.645Z,8.98
2023-02-14T15:44:23.447Z,9.25
2023-02-14T15:46:56.633Z,8.60
2023-02-14T15:49:30.292Z,9.35
2023-02-14T15:51:56.962Z,8.40
2023-02-14T15:54:31.821Z,8.77
2023-02-14T15:56:58.800Z,9.32
2023-02-14T15:59:29.807Z,9.95
2023-02-14T16:02:00.771Z,10.27
2023-02-14T16:04:36.178Z,10.30
2023-02-14T16:07:13.660Z,10.02
2023-02-14T16:09:40.175Z,9.65
2023-02-14T16:12:30.973Z,11.45
2023-02-14T16:15:21.903Z,10.20
2023-02-14T16:17:48.385Z,9.15
2023-02-14T16:20:36.182Z,9.68
2023-02-14T16:23:17.349Z,9.50
2023-02-14T16:25:44.355Z,10.45
2023-02-14T16:28:10.788Z,10.13
2023-02-14T16:30:39.200Z,9.05
2023-02-14T16:33:07.105Z,9.20
2023-02-14T16:35:33.711Z,8.52
2023-02-14T16:38:00.169Z,7.95
2023-02-14T16:40:27.741Z,7.97
2023-02-14T16:42:54.946Z,8.55
2023-02-14T16:45:21.502Z,7.88
2023-02-14T16:47:48.625Z,7.60
2023-02-14T16:50:15.828Z,7.90
2023-02-14T16:52:45.427Z,8.23
2023-02-14T16:55:16.686Z,8.27
2023-02-14T16:57:46.313Z,8.45
2023-02-14T17:00:13.715Z,7.72
2023-02-14T17:02:41.412Z,8.32
2023-02-14T17:05:09.901Z,7.78
2023-02-14T17:07:37.762Z,7.53
2023-02-14T17:10:11.172Z,7.70
2023-02-14T17:12:43.074Z,7.50
2023-02-14T17:15:14.595Z,7.90
2023-02-14T17:17:41.462Z,8.05
2023-02-14T17:20:08.620Z,8.30
2023-02-14T17:22:36.616Z,7.55
2023-02-14T17:27:30.091Z,6.90
2023-02-14T17:29:56.653Z,7.35
2023-02-14T17:32:23.329Z,7.43
2023-02-14T17:34:49.859Z,8.02
2023-02-14T17:37:18.825Z,9.02
2023-02-14T17:39:45.568Z,8.95
2023-02-14T17:42:12.220Z,8.43
2023-02-14T17:44:38.980Z,9.95
2023-02-14T17:47:06.669Z,10.05
2023-02-14T17:49:33.182Z,10.48
2023-02-14T17:51:59.576Z,10.63
2023-02-14T17:54:26.027Z,13.05
2023-02-14T17:56:52.439Z,11.55
2023-02-14T17:59:18.905Z,11.52
2023-02-14T18:01:45.357Z,12.30
2023-02-14T18:04:11.872Z,12.90
2023-02-14T18:06:38.335Z,12.43
2023-02-14T18:09:05.923Z,12.10
2023-02-14T18:11:32.441Z,11.30
2023-02-14T18:13:59.677Z,11.02
2023-02-14T18:16:26.511Z,12.52
2023-02-14T18:18:54.792Z,12.88
2023-02-14T18:21:21.815Z,12.68
2023-02-14T18:23:48.430Z,14.27
2023-02-14T18:26:16.675Z,12.68
2023-02-14T18:28:43.070Z,13.48
2023-02-14T18:31:12.001Z,12.50
2023-02-14T18:33:39.253Z,13.60
2023-02-14T18:36:14.455Z,14.10
2023-02-14T18:38:42.577Z,12.73
2023-02-14T18:43:37.795Z,12.20
2023-02-14T18:46:06.400Z,12.57
2023-02-14T18:48:33.836Z,13.77
2023-02-14T18:51:10.848Z,13.50
2023-02-14T18:53:39.205Z,12.73
2023-02-14T18:56:07.793Z,14.02
2023-02-14T18:58:34.543Z,14.05
2023-02-14T19:01:11.347Z,12.90
2023-02-14T19:03:38.968Z,14.30
2023-02-14T19:06:06.466Z,15.77
2023-02-14T19:08:34.838Z,15.07
2023-02-14T19:11:02.626Z,14.15
2023-02-14T19:13:29.505Z,14.35
2023-02-14T19:15:56.532Z,15.18
2023-02-14T19:18:25.629Z,15.35
2023-02-14T19:20:52.245Z,15.63
2023-02-14T19:23:19.570Z,14.45
2023-02-14T19:25:45.990Z,14.90
2023-02-14T19:28:12.415Z,15.57
2023-02-14T19:30:39.056Z,14.35
2023-02-14T19:33:05.427Z,16.13
2023-02-14T19:35:31.778Z,16.65
2023-02-14T19:37:58.986Z,14.57
2023-02-14T19:40:26.266Z,14.88
2023-02-14T19:42:52.694Z,14.70
2023-02-14T19:45:19.034Z,15.80
2023-02-14T19:47:47.289Z,15.60
2023-02-14T19:50:14.215Z,15.13
2023-02-14T19:52:40.613Z,16.10
2023-02-14T19:55:07.753Z,16.02
2023-02-14T19:57:34.404Z,15.73
2023-02-14T20:00:00.860Z,17.00
2023-02-14T20:02:27.254Z,17.48
2023-02-14T20:04:58.762Z,15.93
2023-02-14T20:07:25.237Z,16.45
2023-02-14T20:09:51.659Z,17.38
2023-02-14T20:12:18.020Z,15.35
2023-02-14T20:14:51.450Z,17.63
2023-02-14T20:17:18.684Z,15.63
2023-02-14T20:19:45.267Z,16.63
2023-02-14T20:22:11.619Z,16.75
2023-02-14T20:24:37.983Z,16.17
2023-02-14T20:27:04.550Z,17.65
2023-02-14T20:29:31.123Z,17.00
2023-02-14T20:32:00.000Z,15.90
2023-02-14T20:34:27.096Z,15.45
2023-02-14T20:36:55.196Z,16.25
2023-02-14T20:39:26.381Z,17.40
2023-02-14T20:41:53.930Z,15.38
2023-02-14T20:44:21.702Z,14.93
2023-02-14T20:46:49.847Z,16.05
2023-02-14T20:49:16.313Z,18.23
2023-02-14T20:51:43.316Z,18.50
2023-02-14T20:54:09.808Z,18.27
2023-02-14T20:56:36.252Z,18.85
2023-02-14T20:59:03.408Z,17.77
2023-02-14T21:01:30.203Z,17.25
2023-02-14T21:03:56.945Z,17.05
2023-02-14T21:06:26.326Z,17.75
2023-02-14T21:08:52.748Z,17.02
2023-02-14T21:11:22.575Z,16.95
2023-02-14T21:13:49.045Z,15.90
2023-02-14T21:16:18.114Z,17.20
2023-02-14T21:18:48.523Z,18.65
2023-02-14T21:21:20.055Z,17.95
2023-02-14T21:23:49.513Z,15.80
2023-02-14T21:26:16.640Z,16.75
2023-02-14T21:28:43.862Z,19.50
2023-02-14T21:31:12.690Z,21.15
2023-02-14T21:33:39.230Z,19.95
2023-02-14T21:36:14.051Z,19.48
2023-02-14T21:38:40.946Z,20.65
2023-02-14T21:41:16.573Z,16.83
2023-02-14T21:43:44.582Z,17.13
2023-02-14T21:46:27.634Z,19.23
2023-02-14T21:49:14.143Z,18.02
2023-02-14T21:51:41.339Z,16.95
2023-02-14T21:54:09.032Z,17.92
2023-02-14T21:56:36.750Z,17.10
2023-02-14T21:59:03.650Z,17.58
2023-02-14T22:01:32.786Z,18.08
2023-02-14T22:04:00.168Z,16.52
2023-02-14T22:06:27.682Z,17.55
2023-02-14T22:08:56.116Z,18.40
2023-02-14T22:11:24.403Z,18.88
2023-02-14T22:16:19.130Z,16.92
2023-02-14T22:18:47.823Z,16.13
2023-02-14T22:21:17.707Z,17.27
2023-02-14T22:23:44.711Z,18.73
2023-02-14T22:26:12.537Z,18.08
2023-02-14T22:28:40.299Z,18.15
2023-02-14T22:31:07.409Z,16.17
2023-02-14T22:33:36.042Z,17.17
2023-02-14T22:36:04.887Z,15.43
2023-02-14T22:38:31.555Z,15.77
2023-02-14T22:41:06.426Z,15.57
2023-02-14T22:43:33.321Z,14.45
2023-02-14T22:46:08.642Z,17.85
2023-02-14T22:48:36.362Z,16.83
2023-02-14T22:51:24.860Z,18.35
2023-02-14T22:53:53.507Z,17.83
2023-02-14T22:56:34.206Z,16.33
2023-02-14T22:59:06.693Z,17.55
2023-02-14T23:01:34.792Z,16.50
2023-02-14T23:04:02.720Z,16.80
2023-02-14T23:06:30.963Z,16.58
2023-02-14T23:08:57.780Z,16.40
2023-02-14T23:11:26.852Z,16.05
2023-02-14T23:14:12.532Z,17.98
2023-02-14T23:16:58.052Z,16.60
2023-02-14T23:19:46.563Z,15.57
2023-02-14T23:22:14.592Z,15.55
2023-02-14T23:24:41.743Z,15.32
2023-02-14T23:27:09.196Z,14.23
2023-02-14T23:29:36.682Z,15.15
2023-02-14T23:32:04.491Z,14.95
2023-02-14T23:34:33.409Z,16.83
2023-02-14T23:36:59.957Z,17.73
2023-02-14T23:39:26.413Z,17.00
2023-02-14T23:41:53.198Z,18.77
2023-02-14T23:44:22.856Z,19.90
2023-02-14T23:46:51.527Z,16.83
2023-02-14T23:49:18.574Z,17.60
2023-02-14T23:51:47.266Z,18.98
2023-02-14T23:54:14.161Z,17.13
2023-02-14T23:56:41.145Z,16.70
2023-02-14T23:59:08.258Z,15.45
